sensor_id;sensor_type;location;lat;lon;timestamp;P1;durP1;ratioP1;P2;durP2;ratioP2
71969;SDS011;59838;52.152;5.436;2023-08-30T00:01:01;5.47;;;4.25;;
71969;SDS011;59838;52.152;5.436;2023-08-30T00:03:28;4.73;;;3.70;;
71969;SDS011;59838;52.152;5.436;2023-08-30T00:05:54;6.72;;;3.67;;
71969;SDS011;59838;52.152;5.436;2023-08-30T00:08:21;4.15;;;3.22;;
71969;SDS011;59838;52.152;5.436;2023-08-30T00:10:48;4.43;;;3.22;;
71969;SDS011;59838;52.152;5.436;2023-08-30T00:13:15;7.07;;;4.18;;
71969;SDS011;59838;52.152;5.436;2023-08-30T00:15:41;5.67;;;3.90;;
71969;SDS011;59838;52.152;5.436;2023-08-30T00:18:08;5.25;;;3.70;;
71969;SDS011;59838;52.152;5.436;2023-08-30T00:20:36;6.80;;;3.95;;
71969;SDS011;59838;52.152;5.436;2023-08-30T00:23:03;7.28;;;3.85;;
71969;SDS011;59838;52.152;5.436;2023-08-30T00:25:30;6.95;;;3.78;;
71969;SDS011;59838;52.152;5.436;2023-08-30T00:27:56;5.60;;;3.57;;
71969;SDS011;59838;52.152;5.436;2023-08-30T00:30:23;6.30;;;4.22;;
71969;SDS011;59838;52.152;5.436;2023-08-30T00:32:50;6.25;;;4.20;;
71969;SDS011;59838;52.152;5.436;2023-08-30T00:35:16;7.25;;;4.10;;
71969;SDS011;59838;52.152;5.436;2023-08-30T00:37:43;6.60;;;3.65;;
71969;SDS011;59838;52.152;5.436;2023-08-30T00:40:09;9.00;;;4.00;;
71969;SDS011;59838;52.152;5.436;2023-08-30T00:42:36;6.80;;;4.35;;
71969;SDS011;59838;52.152;5.436;2023-08-30T00:45:03;6.30;;;4.10;;
71969;SDS011;59838;52.152;5.436;2023-08-30T00:47:30;5.97;;;4.22;;
71969;SDS011;59838;52.152;5.436;2023-08-30T00:49:57;7.47;;;4.47;;
71969;SDS011;59838;52.152;5.436;2023-08-30T00:52:23;6.73;;;4.43;;
71969;SDS011;59838;52.152;5.436;2023-08-30T00:54:50;6.18;;;4.18;;
71969;SDS011;59838;52.152;5.436;2023-08-30T00:57:16;7.78;;;4.70;;
71969;SDS011;59838;52.152;5.436;2023-08-30T00:59:43;5.95;;;4.00;;
71969;SDS011;59838;52.152;5.436;2023-08-30T01:02:10;6.47;;;4.63;;
71969;SDS011;59838;52.152;5.436;2023-08-30T01:04:37;8.63;;;4.40;;
71969;SDS011;59838;52.152;5.436;2023-08-30T01:07:03;6.13;;;4.43;;
71969;SDS011;59838;52.152;5.436;2023-08-30T01:09:30;6.57;;;4.28;;
71969;SDS011;59838;52.152;5.436;2023-08-30T01:11:59;6.50;;;4.40;;
71969;SDS011;59838;52.152;5.436;2023-08-30T01:14:49;4.93;;;3.67;;
71969;SDS011;59838;52.152;5.436;2023-08-30T01:17:23;5.40;;;3.97;;
71969;SDS011;59838;52.152;5.436;2023-08-30T01:19:53;5.15;;;4.05;;
71969;SDS011;59838;52.152;5.436;2023-08-30T01:22:38;5.60;;;4.22;;
71969;SDS011;59838;52.152;5.436;2023-08-30T01:27:41;6.32;;;3.95;;
71969;SDS011;59838;52.152;5.436;2023-08-30T01:30:10;5.60;;;4.00;;
71969;SDS011;59838;52.152;5.436;2023-08-30T01:32:38;5.10;;;3.85;;
71969;SDS011;59838;52.152;5.436;2023-08-30T01:35:06;6.43;;;4.10;;
71969;SDS011;59838;52.152;5.436;2023-08-30T01:37:33;5.32;;;3.83;;
71969;SDS011;59838;52.152;5.436;2023-08-30T01:40:01;8.68;;;3.83;;
71969;SDS011;59838;52.152;5.436;2023-08-30T01:42:33;6.10;;;4.00;;
71969;SDS011;59838;52.152;5.436;2023-08-30T01:45:02;5.60;;;3.72;;
71969;SDS011;59838;52.152;5.436;2023-08-30T01:47:29;7.40;;;4.15;;
71969;SDS011;59838;52.152;5.436;2023-08-30T01:49:57;8.60;;;4.20;;
71969;SDS011;59838;52.152;5.436;2023-08-30T01:52:24;5.55;;;4.00;;
71969;SDS011;59838;52.152;5.436;2023-08-30T01:54:51;8.40;;;4.03;;
71969;SDS011;59838;52.152;5.436;2023-08-30T01:57:19;4.90;;;3.83;;
71969;SDS011;59838;52.152;5.436;2023-08-30T01:59:46;7.32;;;4.40;;
71969;SDS011;59838;52.152;5.436;2023-08-30T02:02:12;7.30;;;4.32;;
71969;SDS011;59838;52.152;5.436;2023-08-30T02:04:39;7.25;;;4.43;;
71969;SDS011;59838;52.152;5.436;2023-08-30T02:07:08;8.27;;;4.20;;
71969;SDS011;59838;52.152;5.436;2023-08-30T02:09:49;6.82;;;4.75;;
71969;SDS011;59838;52.152;5.436;2023-08-30T02:12:23;6.07;;;4.53;;
71969;SDS011;59838;52.152;5.436;2023-08-30T02:14:52;6.65;;;4.38;;
71969;SDS011;59838;52.152;5.436;2023-08-30T02:17:19;9.02;;;4.25;;
71969;SDS011;59838;52.152;5.436;2023-08-30T02:19:46;5.83;;;4.10;;
71969;SDS011;59838;52.152;5.436;2023-08-30T02:22:13;8.68;;;4.05;;
71969;SDS011;59838;52.152;5.436;2023-08-30T02:24:40;7.28;;;4.75;;
71969;SDS011;59838;52.152;5.436;2023-08-30T02:27:06;8.15;;;4.25;;
71969;SDS011;59838;52.152;5.436;2023-08-30T02:29:33;6.82;;;4.50;;
71969;SDS011;59838;52.152;5.436;2023-08-30T02:31:59;5.43;;;3.83;;
71969;SDS011;59838;52.152;5.436;2023-08-30T02:34:26;7.45;;;4.25;;
71969;SDS011;59838;52.152;5.436;2023-08-30T02:36:52;8.00;;;4.53;;
71969;SDS011;59838;52.152;5.436;2023-08-30T02:39:18;8.85;;;4.78;;
71969;SDS011;59838;52.152;5.436;2023-08-30T02:41:45;7.85;;;4.03;;
71969;SDS011;59838;52.152;5.436;2023-08-30T02:44:12;7.77;;;4.40;;
71969;SDS011;59838;52.152;5.436;2023-08-30T02:46:38;6.97;;;4.75;;
71969;SDS011;59838;52.152;5.436;2023-08-30T02:49:05;7.10;;;4.53;;
71969;SDS011;59838;52.152;5.436;2023-08-30T02:51:32;6.38;;;3.92;;
71969;SDS011;59838;52.152;5.436;2023-08-30T02:53:58;11.05;;;4.93;;
71969;SDS011;59838;52.152;5.436;2023-08-30T02:56:25;6.70;;;5.10;;
71969;SDS011;59838;52.152;5.436;2023-08-30T02:58:52;6.43;;;4.90;;
71969;SDS011;59838;52.152;5.436;2023-08-30T03:01:18;7.45;;;4.88;;
71969;SDS011;59838;52.152;5.436;2023-08-30T03:03:45;6.30;;;4.95;;
71969;SDS011;59838;52.152;5.436;2023-08-30T03:06:12;8.75;;;4.90;;
71969;SDS011;59838;52.152;5.436;2023-08-30T03:08:40;9.23;;;5.00;;
71969;SDS011;59838;52.152;5.436;2023-08-30T03:11:13;8.70;;;5.15;;
71969;SDS011;59838;52.152;5.436;2023-08-30T03:13:40;8.63;;;5.30;;
71969;SDS011;59838;52.152;5.436;2023-08-30T03:16:13;10.75;;;4.93;;
71969;SDS011;59838;52.152;5.436;2023-08-30T03:18:43;8.98;;;5.10;;
71969;SDS011;59838;52.152;5.436;2023-08-30T03:21:10;10.67;;;5.80;;
71969;SDS011;59838;52.152;5.436;2023-08-30T03:23:37;8.02;;;5.20;;
71969;SDS011;59838;52.152;5.436;2023-08-30T03:26:10;8.60;;;5.55;;
71969;SDS011;59838;52.152;5.436;2023-08-30T03:28:38;10.75;;;5.65;;
71969;SDS011;59838;52.152;5.436;2023-08-30T03:31:16;9.15;;;5.80;;
71969;SDS011;59838;52.152;5.436;2023-08-30T03:33:46;6.77;;;4.43;;
71969;SDS011;59838;52.152;5.436;2023-08-30T03:36:14;7.68;;;5.00;;
71969;SDS011;59838;52.152;5.436;2023-08-30T03:38:42;10.80;;;5.28;;
71969;SDS011;59838;52.152;5.436;2023-08-30T03:41:09;8.40;;;5.32;;
71969;SDS011;59838;52.152;5.436;2023-08-30T03:43:36;11.00;;;5.43;;
71969;SDS011;59838;52.152;5.436;2023-08-30T03:46:03;9.47;;;6.03;;
71969;SDS011;59838;52.152;5.436;2023-08-30T03:48:30;8.20;;;5.75;;
71969;SDS011;59838;52.152;5.436;2023-08-30T03:50:57;9.02;;;5.85;;
71969;SDS011;59838;52.152;5.436;2023-08-30T03:53:24;8.77;;;5.35;;
71969;SDS011;59838;52.152;5.436;2023-08-30T03:55:51;12.15;;;6.13;;
71969;SDS011;59838;52.152;5.436;2023-08-30T03:58:18;11.73;;;5.73;;
71969;SDS011;59838;52.152;5.436;2023-08-30T04:00:45;10.02;;;5.03;;
71969;SDS011;59838;52.152;5.436;2023-08-30T04:03:12;10.85;;;5.32;;
71969;SDS011;59838;52.152;5.436;2023-08-30T04:05:41;11.18;;;5.13;;
71969;SDS011;59838;52.152;5.436;2023-08-30T04:08:08;8.70;;;5.10;;
71969;SDS011;59838;52.152;5.436;2023-08-30T04:10:36;9.60;;;5.47;;
71969;SDS011;59838;52.152;5.436;2023-08-30T04:13:03;11.55;;;5.00;;
71969;SDS011;59838;52.152;5.436;2023-08-30T04:15:37;9.32;;;5.57;;
71969;SDS011;59838;52.152;5.436;2023-08-30T04:18:05;11.25;;;6.20;;
71969;SDS011;59838;52.152;5.436;2023-08-30T04:20:33;9.45;;;5.43;;
71969;SDS011;59838;52.152;5.436;2023-08-30T04:23:00;11.00;;;5.97;;
71969;SDS011;59838;52.152;5.436;2023-08-30T04:25:28;12.02;;;5.68;;
71969;SDS011;59838;52.152;5.436;2023-08-30T04:27:56;12.30;;;6.15;;
71969;SDS011;59838;52.152;5.436;2023-08-30T04:30:22;8.02;;;5.20;;
71969;SDS011;59838;52.152;5.436;2023-08-30T04:32:49;7.97;;;5.03;;
71969;SDS011;59838;52.152;5.436;2023-08-30T04:35:16;9.27;;;5.10;;
71969;SDS011;59838;52.152;5.436;2023-08-30T04:37:43;8.15;;;4.97;;
71969;SDS011;59838;52.152;5.436;2023-08-30T04:40:09;11.27;;;5.82;;
71969;SDS011;59838;52.152;5.436;2023-08-30T04:42:36;8.93;;;5.28;;
71969;SDS011;59838;52.152;5.436;2023-08-30T04:45:04;9.15;;;5.70;;
71969;SDS011;59838;52.152;5.436;2023-08-30T04:47:31;9.80;;;5.50;;
71969;SDS011;59838;52.152;5.436;2023-08-30T04:49:58;8.98;;;4.72;;
71969;SDS011;59838;52.152;5.436;2023-08-30T04:52:25;9.45;;;5.63;;
71969;SDS011;59838;52.152;5.436;2023-08-30T04:54:51;9.13;;;5.32;;
71969;SDS011;59838;52.152;5.436;2023-08-30T04:57:18;8.27;;;5.22;;
71969;SDS011;59838;52.152;5.436;2023-08-30T04:59:45;7.67;;;4.63;;
71969;SDS011;59838;52.152;5.436;2023-08-30T05:02:11;8.77;;;5.60;;
71969;SDS011;59838;52.152;5.436;2023-08-30T05:04:38;8.77;;;5.15;;
71969;SDS011;59838;52.152;5.436;2023-08-30T05:07:05;8.32;;;4.95;;
71969;SDS011;59838;52.152;5.436;2023-08-30T05:09:31;7.75;;;5.20;;
71969;SDS011;59838;52.152;5.436;2023-08-30T05:11:58;7.60;;;5.00;;
71969;SDS011;59838;52.152;5.436;2023-08-30T05:14:25;7.55;;;4.90;;
71969;SDS011;59838;52.152;5.436;2023-08-30T05:16:52;11.38;;;5.85;;
71969;SDS011;59838;52.152;5.436;2023-08-30T05:19:19;9.52;;;5.18;;
71969;SDS011;59838;52.152;5.436;2023-08-30T05:21:45;8.55;;;5.22;;
71969;SDS011;59838;52.152;5.436;2023-08-30T05:24:12;8.23;;;4.80;;
71969;SDS011;59838;52.152;5.436;2023-08-30T05:26:38;7.70;;;4.60;;
71969;SDS011;59838;52.152;5.436;2023-08-30T05:29:05;10.88;;;4.88;;
71969;SDS011;59838;52.152;5.436;2023-08-30T05:31:31;10.05;;;5.07;;
71969;SDS011;59838;52.152;5.436;2023-08-30T05:33:58;8.07;;;5.28;;
71969;SDS011;59838;52.152;5.436;2023-08-30T05:36:24;10.47;;;5.00;;
71969;SDS011;59838;52.152;5.436;2023-08-30T05:38:51;12.68;;;5.40;;
71969;SDS011;59838;52.152;5.436;2023-08-30T05:41:17;8.52;;;5.22;;
71969;SDS011;59838;52.152;5.436;2023-08-30T05:43:43;6.65;;;4.57;;
71969;SDS011;59838;52.152;5.436;2023-08-30T05:46:10;8.20;;;5.30;;
71969;SDS011;59838;52.152;5.436;2023-08-30T05:48:41;10.90;;;5.10;;
71969;SDS011;59838;52.152;5.436;2023-08-30T05:51:08;6.78;;;5.03;;
71969;SDS011;59838;52.152;5.436;2023-08-30T05:53:35;8.85;;;5.70;;
71969;SDS011;59838;52.152;5.436;2023-08-30T05:56:01;10.02;;;5.22;;
71969;SDS011;59838;52.152;5.436;2023-08-30T05:58:27;9.85;;;5.80;;
71969;SDS011;59838;52.152;5.436;2023-08-30T06:00:54;8.00;;;4.57;;
71969;SDS011;59838;52.152;5.436;2023-08-30T06:03:21;10.00;;;5.90;;
71969;SDS011;59838;52.152;5.436;2023-08-30T06:05:48;9.05;;;5.70;;
71969;SDS011;59838;52.152;5.436;2023-08-30T06:08:15;12.55;;;5.50;;
71969;SDS011;59838;52.152;5.436;2023-08-30T06:10:41;7.65;;;4.93;;
71969;SDS011;59838;52.152;5.436;2023-08-30T06:13:08;7.67;;;4.90;;
71969;SDS011;59838;52.152;5.436;2023-08-30T06:15:35;9.40;;;4.88;;
71969;SDS011;59838;52.152;5.436;2023-08-30T06:18:01;7.65;;;5.68;;
71969;SDS011;59838;52.152;5.436;2023-08-30T06:20:29;9.35;;;6.30;;
71969;SDS011;59838;52.152;5.436;2023-08-30T06:22:57;9.30;;;6.20;;
71969;SDS011;59838;52.152;5.436;2023-08-30T06:25:25;8.83;;;4.97;;
71969;SDS011;59838;52.152;5.436;2023-08-30T06:27:55;9.15;;;5.45;;
71969;SDS011;59838;52.152;5.436;2023-08-30T06:30:24;9.15;;;5.70;;
71969;SDS011;59838;52.152;5.436;2023-08-30T06:32:52;8.80;;;5.72;;
71969;SDS011;59838;52.152;5.436;2023-08-30T06:35:19;9.40;;;5.38;;
71969;SDS011;59838;52.152;5.436;2023-08-30T06:37:45;9.40;;;5.43;;
71969;SDS011;59838;52.152;5.436;2023-08-30T06:40:12;11.30;;;5.90;;
71969;SDS011;59838;52.152;5.436;2023-08-30T06:42:38;9.48;;;5.43;;
71969;SDS011;59838;52.152;5.436;2023-08-30T06:45:05;11.80;;;6.20;;
71969;SDS011;59838;52.152;5.436;2023-08-30T06:47:32;15.90;;;5.72;;
71969;SDS011;59838;52.152;5.436;2023-08-30T06:49:58;8.97;;;5.50;;
71969;SDS011;59838;52.152;5.436;2023-08-30T06:52:26;9.88;;;5.32;;
71969;SDS011;59838;52.152;5.436;2023-08-30T06:54:53;9.43;;;6.40;;
71969;SDS011;59838;52.152;5.436;2023-08-30T06:57:20;9.90;;;6.07;;
71969;SDS011;59838;52.152;5.436;2023-08-30T06:59:48;10.30;;;5.90;;
71969;SDS011;59838;52.152;5.436;2023-08-30T07:02:15;10.07;;;5.97;;
71969;SDS011;59838;52.152;5.436;2023-08-30T07:04:41;13.65;;;7.10;;
71969;SDS011;59838;52.152;5.436;2023-08-30T07:07:07;14.75;;;6.07;;
71969;SDS011;59838;52.152;5.436;2023-08-30T07:09:34;9.93;;;5.32;;
71969;SDS011;59838;52.152;5.436;2023-08-30T07:12:01;10.15;;;5.90;;
71969;SDS011;59838;52.152;5.436;2023-08-30T07:14:27;10.27;;;6.10;;
71969;SDS011;59838;52.152;5.436;2023-08-30T07:16:54;11.95;;;5.30;;
71969;SDS011;59838;52.152;5.436;2023-08-30T07:19:20;11.18;;;5.60;;
71969;SDS011;59838;52.152;5.436;2023-08-30T07:21:47;9.38;;;6.13;;
71969;SDS011;59838;52.152;5.436;2023-08-30T07:24:14;10.45;;;6.68;;
71969;SDS011;59838;52.152;5.436;2023-08-30T07:26:40;8.50;;;5.20;;
71969;SDS011;59838;52.152;5.436;2023-08-30T07:29:08;9.25;;;5.28;;
71969;SDS011;59838;52.152;5.436;2023-08-30T07:31:35;8.73;;;5.45;;
71969;SDS011;59838;52.152;5.436;2023-08-30T07:34:01;7.93;;;5.38;;
71969;SDS011;59838;52.152;5.436;2023-08-30T07:36:29;9.68;;;5.88;;
71969;SDS011;59838;52.152;5.436;2023-08-30T07:39:11;8.63;;;5.00;;
71969;SDS011;59838;52.152;5.436;2023-08-30T07:41:39;8.88;;;5.38;;
71969;SDS011;59838;52.152;5.436;2023-08-30T07:44:05;8.43;;;5.80;;
71969;SDS011;59838;52.152;5.436;2023-08-30T07:46:32;7.15;;;4.88;;
71969;SDS011;59838;52.152;5.436;2023-08-30T07:48:58;7.65;;;5.55;;
71969;SDS011;59838;52.152;5.436;2023-08-30T07:51:24;6.03;;;4.80;;
71969;SDS011;59838;52.152;5.436;2023-08-30T07:53:51;7.53;;;4.65;;
71969;SDS011;59838;52.152;5.436;2023-08-30T07:56:17;8.05;;;4.88;;
71969;SDS011;59838;52.152;5.436;2023-08-30T07:58:44;8.55;;;4.85;;
71969;SDS011;59838;52.152;5.436;2023-08-30T08:01:10;9.57;;;5.22;;
71969;SDS011;59838;52.152;5.436;2023-08-30T08:03:37;8.23;;;5.17;;
71969;SDS011;59838;52.152;5.436;2023-08-30T08:06:14;6.35;;;5.00;;
71969;SDS011;59838;52.152;5.436;2023-08-30T08:08:40;8.73;;;4.53;;
71969;SDS011;59838;52.152;5.436;2023-08-30T08:11:07;8.65;;;4.50;;
71969;SDS011;59838;52.152;5.436;2023-08-30T08:13:33;6.20;;;4.75;;
71969;SDS011;59838;52.152;5.436;2023-08-30T08:16:00;6.80;;;4.97;;
71969;SDS011;59838;52.152;5.436;2023-08-30T08:18:26;6.97;;;4.90;;
71969;SDS011;59838;52.152;5.436;2023-08-30T08:20:53;9.02;;;4.35;;
71969;SDS011;59838;52.152;5.436;2023-08-30T08:23:20;6.55;;;4.13;;
71969;SDS011;59838;52.152;5.436;2023-08-30T08:25:46;7.32;;;4.13;;
71969;SDS011;59838;52.152;5.436;2023-08-30T08:28:13;6.10;;;3.20;;
71969;SDS011;59838;52.152;5.436;2023-08-30T08:30:40;6.18;;;4.10;;
71969;SDS011;59838;52.152;5.436;2023-08-30T08:33:08;6.25;;;4.18;;
71969;SDS011;59838;52.152;5.436;2023-08-30T08:35:35;5.53;;;3.35;;
71969;SDS011;59838;52.152;5.436;2023-08-30T08:38:02;6.97;;;3.58;;
71969;SDS011;59838;52.152;5.436;2023-08-30T08:40:29;5.97;;;3.47;;
71969;SDS011;59838;52.152;5.436;2023-08-30T08:43:09;4.10;;;2.88;;
71969;SDS011;59838;52.152;5.436;2023-08-30T08:45:38;3.78;;;3.20;;
71969;SDS011;59838;52.152;5.436;2023-08-30T08:48:05;4.22;;;2.97;;
71969;SDS011;59838;52.152;5.436;2023-08-30T08:50:32;4.85;;;2.88;;
71969;SDS011;59838;52.152;5.436;2023-08-30T08:53:01;5.03;;;3.40;;
71969;SDS011;59838;52.152;5.436;2023-08-30T08:55:29;4.85;;;3.45;;
71969;SDS011;59838;52.152;5.436;2023-08-30T08:57:58;5.40;;;3.00;;
71969;SDS011;59838;52.152;5.436;2023-08-30T09:00:25;4.93;;;3.38;;
71969;SDS011;59838;52.152;5.436;2023-08-30T09:02:53;4.82;;;2.70;;
71969;SDS011;59838;52.152;5.436;2023-08-30T09:05:20;5.87;;;2.53;;
71969;SDS011;59838;52.152;5.436;2023-08-30T09:07:48;5.55;;;3.20;;
71969;SDS011;59838;52.152;5.436;2023-08-30T09:10:20;4.38;;;2.88;;
71969;SDS011;59838;52.152;5.436;2023-08-30T09:12:47;4.22;;;3.10;;
71969;SDS011;59838;52.152;5.436;2023-08-30T09:15:14;6.63;;;3.10;;
71969;SDS011;59838;52.152;5.436;2023-08-30T09:17:42;4.83;;;2.50;;
71969;SDS011;59838;52.152;5.436;2023-08-30T09:20:09;4.40;;;3.10;;
71969;SDS011;59838;52.152;5.436;2023-08-30T09:22:41;3.97;;;2.92;;
71969;SDS011;59838;52.152;5.436;2023-08-30T09:25:09;4.18;;;3.03;;
71969;SDS011;59838;52.152;5.436;2023-08-30T09:27:37;5.45;;;3.55;;
71969;SDS011;59838;52.152;5.436;2023-08-30T09:30:08;4.37;;;3.00;;
71969;SDS011;59838;52.152;5.436;2023-08-30T09:32:40;5.63;;;2.83;;
71969;SDS011;59838;52.152;5.436;2023-08-30T09:35:11;4.80;;;3.38;;
71969;SDS011;59838;52.152;5.436;2023-08-30T09:37:38;3.72;;;2.78;;
71969;SDS011;59838;52.152;5.436;2023-08-30T09:40:04;4.40;;;3.00;;
71969;SDS011;59838;52.152;5.436;2023-08-30T09:42:32;4.80;;;3.20;;
71969;SDS011;59838;52.152;5.436;2023-08-30T09:44:58;5.40;;;3.10;;
71969;SDS011;59838;52.152;5.436;2023-08-30T09:47:25;5.22;;;3.28;;
71969;SDS011;59838;52.152;5.436;2023-08-30T09:49:55;6.82;;;3.33;;
71969;SDS011;59838;52.152;5.436;2023-08-30T09:52:23;4.47;;;3.03;;
71969;SDS011;59838;52.152;5.436;2023-08-30T09:54:51;5.70;;;3.00;;
71969;SDS011;59838;52.152;5.436;2023-08-30T09:57:19;8.07;;;3.42;;
71969;SDS011;59838;52.152;5.436;2023-08-30T09:59:47;5.50;;;3.05;;
71969;SDS011;59838;52.152;5.436;2023-08-30T10:02:14;4.32;;;3.30;;
71969;SDS011;59838;52.152;5.436;2023-08-30T10:04:41;5.35;;;3.42;;
71969;SDS011;59838;52.152;5.436;2023-08-30T10:07:10;8.27;;;3.30;;
71969;SDS011;59838;52.152;5.436;2023-08-30T10:09:38;4.65;;;3.53;;
71969;SDS011;59838;52.152;5.436;2023-08-30T10:12:28;5.35;;;3.80;;
71969;SDS011;59838;52.152;5.436;2023-08-30T10:14:55;6.63;;;3.83;;
71969;SDS011;59838;52.152;5.436;2023-08-30T10:17:25;4.85;;;4.18;;
71969;SDS011;59838;52.152;5.436;2023-08-30T10:19:55;5.23;;;4.40;;
71969;SDS011;59838;52.152;5.436;2023-08-30T10:22:22;6.43;;;4.63;;
71969;SDS011;59838;52.152;5.436;2023-08-30T10:27:38;5.75;;;4.63;;
71969;SDS011;59838;52.152;5.436;2023-08-30T10:30:09;5.43;;;4.90;;
71969;SDS011;59838;52.152;5.436;2023-08-30T10:32:40;6.77;;;4.57;;
71969;SDS011;59838;52.152;5.436;2023-08-30T10:35:15;6.40;;;4.80;;
71969;SDS011;59838;52.152;5.436;2023-08-30T10:37:56;7.22;;;5.03;;
71969;SDS011;59838;52.152;5.436;2023-08-30T10:40:25;4.95;;;4.45;;
71969;SDS011;59838;52.152;5.436;2023-08-30T10:42:59;6.47;;;4.47;;
71969;SDS011;59838;52.152;5.436;2023-08-30T10:45:29;5.47;;;4.47;;
71969;SDS011;59838;52.152;5.436;2023-08-30T10:47:56;4.82;;;4.15;;
71969;SDS011;59838;52.152;5.436;2023-08-30T10:50:27;6.28;;;4.20;;
71969;SDS011;59838;52.152;5.436;2023-08-30T10:52:56;4.43;;;4.03;;
71969;SDS011;59838;52.152;5.436;2023-08-30T10:55:23;3.75;;;3.35;;
71969;SDS011;59838;52.152;5.436;2023-08-30T10:58:02;3.27;;;2.97;;
71969;SDS011;59838;52.152;5.436;2023-08-30T11:00:31;7.93;;;3.40;;
71969;SDS011;59838;52.152;5.436;2023-08-30T11:02:58;3.70;;;2.35;;
71969;SDS011;59838;52.152;5.436;2023-08-30T11:05:25;4.88;;;2.40;;
71969;SDS011;59838;52.152;5.436;2023-08-30T11:07:54;3.95;;;1.70;;
71969;SDS011;59838;52.152;5.436;2023-08-30T11:10:21;4.23;;;1.30;;
71969;SDS011;59838;52.152;5.436;2023-08-30T11:12:48;3.38;;;1.15;;
71969;SDS011;59838;52.152;5.436;2023-08-30T11:15:16;3.38;;;1.13;;
71969;SDS011;59838;52.152;5.436;2023-08-30T11:17:42;4.57;;;1.70;;
71969;SDS011;59838;52.152;5.436;2023-08-30T11:20:11;4.28;;;1.17;;
71969;SDS011;59838;52.152;5.436;2023-08-30T11:22:40;3.33;;;1.33;;
71969;SDS011;59838;52.152;5.436;2023-08-30T11:25:09;4.68;;;1.67;;
71969;SDS011;59838;52.152;5.436;2023-08-30T11:27:37;6.32;;;1.48;;
71969;SDS011;59838;52.152;5.436;2023-08-30T11:30:05;3.22;;;1.42;;
71969;SDS011;59838;52.152;5.436;2023-08-30T11:32:33;3.60;;;1.58;;
71969;SDS011;59838;52.152;5.436;2023-08-30T11:35:07;5.67;;;1.40;;
71969;SDS011;59838;52.152;5.436;2023-08-30T11:37:34;7.57;;;1.25;;
71969;SDS011;59838;52.152;5.436;2023-08-30T11:40:02;7.75;;;1.20;;
71969;SDS011;59838;52.152;5.436;2023-08-30T11:42:30;7.55;;;1.67;;
71969;SDS011;59838;52.152;5.436;2023-08-30T11:44:57;2.58;;;1.30;;
71969;SDS011;59838;52.152;5.436;2023-08-30T11:47:25;4.23;;;1.07;;
71969;SDS011;59838;52.152;5.436;2023-08-30T11:49:54;4.25;;;1.38;;
71969;SDS011;59838;52.152;5.436;2023-08-30T11:52:25;4.50;;;1.40;;
71969;SDS011;59838;52.152;5.436;2023-08-30T11:54:52;3.05;;;0.85;;
71969;SDS011;59838;52.152;5.436;2023-08-30T11:57:20;5.40;;;1.25;;
71969;SDS011;59838;52.152;5.436;2023-08-30T11:59:47;4.40;;;1.10;;
71969;SDS011;59838;52.152;5.436;2023-08-30T12:02:15;3.05;;;1.40;;
71969;SDS011;59838;52.152;5.436;2023-08-30T12:04:43;5.88;;;1.80;;
71969;SDS011;59838;52.152;5.436;2023-08-30T12:07:25;3.95;;;1.55;;
71969;SDS011;59838;52.152;5.436;2023-08-30T12:10:03;3.17;;;1.17;;
71969;SDS011;59838;52.152;5.436;2023-08-30T12:12:31;5.83;;;1.57;;
71969;SDS011;59838;52.152;5.436;2023-08-30T12:14:57;4.72;;;1.50;;
71969;SDS011;59838;52.152;5.436;2023-08-30T12:17:24;9.45;;;1.38;;
71969;SDS011;59838;52.152;5.436;2023-08-30T12:19:57;3.70;;;0.90;;
71969;SDS011;59838;52.152;5.436;2023-08-30T12:22:37;5.50;;;1.55;;
71969;SDS011;59838;52.152;5.436;2023-08-30T12:25:16;3.67;;;0.87;;
71969;SDS011;59838;52.152;5.436;2023-08-30T12:27:43;4.10;;;0.77;;
71969;SDS011;59838;52.152;5.436;2023-08-30T12:30:10;4.50;;;0.88;;
71969;SDS011;59838;52.152;5.436;2023-08-30T12:32:37;5.85;;;1.17;;
71969;SDS011;59838;52.152;5.436;2023-08-30T12:35:04;5.80;;;1.65;;
71969;SDS011;59838;52.152;5.436;2023-08-30T12:37:31;4.33;;;0.70;;
71969;SDS011;59838;52.152;5.436;2023-08-30T12:39:57;5.03;;;1.05;;
71969;SDS011;59838;52.152;5.436;2023-08-30T12:42:23;8.63;;;1.08;;
71969;SDS011;59838;52.152;5.436;2023-08-30T12:44:50;7.40;;;1.05;;
71969;SDS011;59838;52.152;5.436;2023-08-30T12:47:16;4.82;;;0.93;;
71969;SDS011;59838;52.152;5.436;2023-08-30T12:49:43;4.37;;;0.77;;
71969;SDS011;59838;52.152;5.436;2023-08-30T12:52:09;4.10;;;0.80;;
71969;SDS011;59838;52.152;5.436;2023-08-30T12:54:36;3.05;;;0.90;;
71969;SDS011;59838;52.152;5.436;2023-08-30T12:57:02;5.68;;;0.90;;
71969;SDS011;59838;52.152;5.436;2023-08-30T12:59:29;4.57;;;0.90;;
71969;SDS011;59838;52.152;5.436;2023-08-30T13:01:55;4.43;;;0.80;;
71969;SDS011;59838;52.152;5.436;2023-08-30T13:04:22;6.88;;;1.00;;
71969;SDS011;59838;52.152;5.436;2023-08-30T13:06:48;4.50;;;1.10;;
71969;SDS011;59838;52.152;5.436;2023-08-30T13:09:15;3.58;;;0.80;;
71969;SDS011;59838;52.152;5.436;2023-08-30T13:11:41;4.18;;;0.52;;
71969;SDS011;59838;52.152;5.436;2023-08-30T13:14:07;4.20;;;0.70;;
71969;SDS011;59838;52.152;5.436;2023-08-30T13:16:34;3.55;;;0.93;;
71969;SDS011;59838;52.152;5.436;2023-08-30T13:19:02;2.67;;;0.75;;
71969;SDS011;59838;52.152;5.436;2023-08-30T13:21:29;4.47;;;0.55;;
71969;SDS011;59838;52.152;5.436;2023-08-30T13:24:06;5.63;;;0.88;;
71969;SDS011;59838;52.152;5.436;2023-08-30T13:26:33;9.67;;;1.13;;
71969;SDS011;59838;52.152;5.436;2023-08-30T13:28:59;8.15;;;1.00;;
71969;SDS011;59838;52.152;5.436;2023-08-30T13:31:28;3.95;;;1.02;;
71969;SDS011;59838;52.152;5.436;2023-08-30T13:33:55;3.03;;;0.75;;
71969;SDS011;59838;52.152;5.436;2023-08-30T13:36:21;4.43;;;0.68;;
71969;SDS011;59838;52.152;5.436;2023-08-30T13:38:48;3.63;;;0.70;;
71969;SDS011;59838;52.152;5.436;2023-08-30T13:41:14;2.30;;;0.88;;
71969;SDS011;59838;52.152;5.436;2023-08-30T13:43:41;4.47;;;0.73;;
71969;SDS011;59838;52.152;5.436;2023-08-30T13:46:07;3.20;;;0.70;;
71969;SDS011;59838;52.152;5.436;2023-08-30T13:48:34;3.45;;;0.80;;
71969;SDS011;59838;52.152;5.436;2023-08-30T13:51:00;2.73;;;0.63;;
71969;SDS011;59838;52.152;5.436;2023-08-30T13:53:27;5.13;;;0.47;;
71969;SDS011;59838;52.152;5.436;2023-08-30T13:55:54;3.15;;;0.90;;
71969;SDS011;59838;52.152;5.436;2023-08-30T13:58:20;5.00;;;1.30;;
71969;SDS011;59838;52.152;5.436;2023-08-30T14:00:47;3.13;;;0.95;;
71969;SDS011;59838;52.152;5.436;2023-08-30T14:03:13;7.67;;;0.77;;
71969;SDS011;59838;52.152;5.436;2023-08-30T14:05:41;3.42;;;1.00;;
71969;SDS011;59838;52.152;5.436;2023-08-30T14:08:08;6.63;;;0.70;;
71969;SDS011;59838;52.152;5.436;2023-08-30T14:10:35;3.28;;;0.80;;
71969;SDS011;59838;52.152;5.436;2023-08-30T14:13:01;2.30;;;0.70;;
71969;SDS011;59838;52.152;5.436;2023-08-30T14:15:28;1.73;;;0.40;;
71969;SDS011;59838;52.152;5.436;2023-08-30T14:17:54;1.98;;;0.40;;
71969;SDS011;59838;52.152;5.436;2023-08-30T14:20:21;6.03;;;0.40;;
71969;SDS011;59838;52.152;5.436;2023-08-30T14:22:47;2.13;;;0.30;;
71969;SDS011;59838;52.152;5.436;2023-08-30T14:25:14;1.95;;;0.60;;
71969;SDS011;59838;52.152;5.436;2023-08-30T14:27:40;4.13;;;0.40;;
71969;SDS011;59838;52.152;5.436;2023-08-30T14:30:07;2.63;;;0.80;;
71969;SDS011;59838;52.152;5.436;2023-08-30T14:32:34;2.25;;;0.40;;
71969;SDS011;59838;52.152;5.436;2023-08-30T14:35:02;4.22;;;0.90;;
71969;SDS011;59838;52.152;5.436;2023-08-30T14:37:29;4.45;;;0.63;;
71969;SDS011;59838;52.152;5.436;2023-08-30T14:39:55;4.13;;;0.33;;
71969;SDS011;59838;52.152;5.436;2023-08-30T14:42:22;3.17;;;0.50;;
71969;SDS011;59838;52.152;5.436;2023-08-30T14:44:49;3.58;;;0.80;;
71969;SDS011;59838;52.152;5.436;2023-08-30T14:47:17;4.55;;;0.57;;
71969;SDS011;59838;52.152;5.436;2023-08-30T14:49:45;3.35;;;0.50;;
71969;SDS011;59838;52.152;5.436;2023-08-30T14:52:13;1.87;;;0.37;;
71969;SDS011;59838;52.152;5.436;2023-08-30T14:54:39;2.63;;;0.50;;